Knight Air

Knight Air knights of the virtual airways



 METAR AND TAF INFORMATION
METAR FOR EGTE
ADDS - METARS form results

(0657 UTC 25 May 2019)
Data provider http://aviationweather.gov/metar/data/
 
METAR text: EGTE 250650Z VRB03KT 9999 BKN009 12/11 Q1020
Conditions at: EGTE (EXETER AIRPORT , GB) observed 0650 UTC 25 May 2019
Temperature: 12.0°C (54°F)
Dewpoint: 11.0°C (52°F) [RH = 94%]
Pressure (altimeter): 30.12 inches Hg (1020.0 mb)
Winds: variable direction winds at 3 MPH (3 knots; 1.5 m/s)
Visibility: 6 or more miles (10+ km)
Ceiling: 900 feet AGL
Clouds: broken clouds at 900 feet AGL
Weather: no significant weather observed at this time

METAR text: EGTE 250620Z 03002KT 9999 FEW014 11/11 Q1020
Conditions at: EGTE (EXETER AIRPORT , GB) observed 0620 UTC 25 May 2019
Temperature: 11.0°C (52°F)
Dewpoint: 11.0°C (52°F) [RH = 100%]
Pressure (altimeter): 30.12 inches Hg (1020.0 mb)
Winds: from the NNE (30 degrees) at 2 MPH (2 knots; 1.0 m/s)
Visibility: 6 or more miles (10+ km)
Ceiling: at least 12,000 feet AGL
Clouds: few clouds at 1400 feet AGL
Weather: no significant weather observed at this time

Forecast for: EGTE (EXETER AIRPORT , GB)
Text: TAF EGTE 250455Z 2506/2515 06002KT 9999 FEW025
Forecast period: 0600 to 1500 UTC 25 May 2019
Forecast type: FROM: standard forecast or significant change
Winds: from the ENE (60 degrees) at 2 MPH (2 knots; 1.0 m/s)
Visibility: 6 or more miles 10+ km)
Ceiling: at least 12,000 feet AGL
Clouds: few clouds at 2500 feet AGL
Weather: no significant weather forecast for this period
Text: BECMG 2506/2509 27010KT
Forecast period: 0600 to 1500 UTC 25 May 2019
Forecast type: BECOMING: Conditions expected to become as follows by 0900 UTC 25 May 2019
Winds: from the W (270 degrees) at 12 MPH (10 knots; 5.1 m/s)
Visibility: 6 or more miles 10+ km)
Ceiling: at least 12,000 feet AGL
Clouds: few clouds at 2500 feet AGL
Weather: no significant weather forecast for this period

 AIRPORT MAP

 RUNWAY INFORMATION
Runway 08 Runway length 6834 ft Runway width 151 ft
Runway elevation 99 ft Runway displaced threshold 33 ft Runway heading 76
Runway 26 Runway length 6834 ft Runway width 151 ft
Runway elevation 102 ft Runway displaced threshold 117 ft Runway heading 256
Runway 13 Runway length 4393 ft Runway width 151 ft
Runway elevation 76 ft Runway displaced threshold 446 ft Runway heading 120
Runway 31 Runway length 4393 ft Runway width 151 ft
Runway elevation 98 ft Runway displaced threshold 0 ft Runway heading 300

 AIRPORT FREQUENCIES
Type APP Name APP Frequency 128.975 MHZ
Type ATIS Name ATIS Frequency 119.325 MHZ
Type Radar Name EXETER Rad Frequency 123.57 MHZ
Type TWR Name TWR Frequency 119.8 MHZ

 AIRPORT NEAR NAVIGATION AIDS